Timeline UpdatesTrip UpdatesNews PostsPvt PostsTravel TipsAdmin PostsConv PostsFollowed PostsChat RequestsBlog PostsPNR Posts

Disclaimer
Search
 
 
Sat Apr 19, 2014 07:26:14 ISTHomeTrainsΣChainsAtlasPNRForumGalleryNewsFAQTripsMembersLoginFeedback
No Recent News for this Train
Other Trains in the News **new
Latest...
Will be short terminated at Cuttack & will run back as 58132 Puri - Rourkela Passenger from Cuttack to Rourkela on 02.07.2013
Tue Jul 02, 2013 (05:40AM)
⇐ Return Journey: Train# 58132

58131/Rourkela-Puri Passenger (UnReserved)

Sep 11 2013 (10:38PM)
Change Departure Station:
Change Arrival Station:
Post a Train Travel TipPost a Train Travel Tip **new
Post a Comment/Question/Picture/VideoPost a Comment/Question/Picture/Video
Pantry/Catering
✕ NO Pantry Car
✕ NO Catering
Loco/Rake Reversals
SBP/Sambalpur Junction (3);
RSA - Rake Sharing
Rake/Coach Composition
Loco
BNDM-WDM-3A. Ref: Entry# 779885
News    PNR    Forum    Time-Table    Availability    Fare Chart    Map    Arr/Dep History    Trips    Gallery    ΣChains    X/O    Timeline    
Travel Time: 3h 50m    19 halts    Distance: 150 km    Avg Speed: 39 km/hr
Type: Passenger
Zone: SER/South Eastern
Departs @ 08:00 (Avg 17m late)
Platform# 3
SMTWTFS
Rourkela Junction/ROU 
Arrives @ 11:50 (Avg 50m late)
Platform# ???
SMTWTFS
Sambalpur Junction/SBP 

19 halts. 22 intermediate Stations between Rourkela Junction and Sambalpur Junction

Show ALL intermediate Stations  Show Old Time-Table

#CodeStation NameX/OArrivesAvgDepartsAvgHaltPFDay#KmSpeedElevZoneAddress
1ROU»Rourkela Junction (5)»  -08:00+17310.045198mSERRourkela, Odisha
2PPOPanposh (2)X  08:08+2308:09+241m--16.050190mSERRourkela, Odisha
3KLGKalunga  08:18+2408:19+261m--113.553203mSERSundargarh, Odisha
4KXNKanshbahal  08:27+2508:28+271m--120.655220mSERSundargarh, Odisha
5GPRaj Gangpur (3)  08:38+2708:39+291m--129.849237mSERRaj Ganpur, Odisha
6SXNSonakhanX  08:48+2808:49+301m--137.148249mSERSundargarh, Odisha
7SOGRSograO  08:57+2908:58+291m--143.540293mSERState Highway 10, Odisha
8GPHGarpos (3)  09:05+2909:06+311m--148.358278mSERSundargarh, Odisha
9TGMTangarmunda  09:14+3009:15+301m--156.063264mSERSundargarh, Odisha
10BMBBamra (3)X  09:23+3009:24+311m--164.458259mSERBamra PH : 06642-229268, Odisha
11DIHDharuadihiX  09:34+3509:35+361m--174.047258mSERSH 24, Odisha
12BEHBagdihi (3)  09:43+3409:44+361m--180.349254mSERState Highway 24 PH: 06640-286227, Odisha
13PNPLPanpaliX  09:52+3309:53+331m--186.941258mSERJharsuguda, Odisha
14DTVDhutra  10:01+3210:02+331m--192.318240mSERJharsuguda, Odisha
15JSGJharsuguda Junction (5)  10:30+1410:35+195m11100.931236mSERJharsuguda, Odisha
16BXQBrundamal  10:48+3410:50+422m--1107.667209mECoRJharsuguda, Odisha
17LPGLapanga  10:58+4411:00+482m--1116.565215mECoRJharsuguda, Odisha
18RGLRengali  11:10+4911:12+502m--1127.371208mECoRState Highway 10, Odisha
19SSNSason  11:20+5311:22+532m--1136.838171mECoRState Highway 10, Odisha
20SBPDSambalpur RoadX  11:40-11:42-2m21148.111161mECoRSambalpur, Odisha
21SBP•Sambalpur Junction (3)•11:50+5012:10+1:0920m--1149.618159mECoRSambalpur, Odisha
22SBPYSambalpur City  12:30+5912:32+1:032m--1155.667161mECoRSambalpur, Odisha
23MANEManeswarX  12:40+1:0412:42+1:092m--1164.492160mECoROrissa, Odisha
24HATBHatibari  12:50+1:1112:52+1:122m--1176.788189mECoROrissa, Odisha
25JUJAJujumura  13:00+1:1513:02+1:182m--1188.4130217mECoRSambalpur, Odisha
26CHARCharmalX  13:10+1:2213:12+1:232m--1205.769160mECoROrissa, Odisha
27RAIRRairakhol  13:25+1:2413:27+1:262m--1220.773144mECoRSH 24, Odisha
28BAMRBamur  13:40+1:2613:42+1:262m--1236.573181mECoRBamur, Odisha
29SRGPSaragipali  13:50+1:2613:52+1:272m--1246.2105197mECoROrissa, Odisha
30HNPAHandapa  14:00+1:2814:02+1:292m--1260.352257mECoRNational Highway 42, Odisha
31BONABoinda  14:10+1:2914:12+1:292m--1267.2116292mECoRState Highway 62, Odisha
32JRPDJarapada  14:20+1:2614:22+1:262m--1282.734205mECoRNational Highway 42, Odisha
33KPJGKerejangaX  14:40+1:1614:42+1:242m--1292.912164mECoRNational Highway 42, Odisha
34ANGLAngul (2)X  15:50+1:0816:00+1:0810m--1306.181120mECoRAngul District, Odisha
35TLHDTalcher Road  16:09+016:10+01m--1318.42473mECoRBhogabereni, Odisha
36TLHRTalcher  16:25+1:1816:50+1:2225m--1324.32486mECoRSub-division Angul district, Odisha
37BDPKBurhapanka  17:17+1:1617:18+1:161m--1335.05779mECoROrissa, Odisha
38MRDLMeramandolil  17:26+1:1717:27+1:181m--1342.6-73mECoROrissa, Odisha
39NBTNayabagirthipur  17:30+1:1717:31+1:171m--1351.42859mECoRDhenkanal, Odisha
40HNDHindol Road  17:41+1:1717:42+1:181m--1356.1-64mECoROrissa, Odisha
41MHDBMahadia Ph  17:43+1:1817:44+1:181m--1360.82466mECoRMahadia, Odisha
42SSPRSadashibapur  17:55+1:1817:56+1:201m--1365.3-54mECoROrissa, Odisha
43DNDLDandi MalX  17:57+1:1417:58+1:141m--1369.02171mECoRIndipur, Odisha
44DNKLDhenkanal (2)  18:19+1:1318:20+1:151m--1376.55859mECoRDhenkanal, Odisha
45SCPRShyama Charanpur Halt  18:25+1:1018:26+1:101m--1381.31894mECoRDhenkanal, Odisha
46JRZJoranda RoadX  18:37+1:1018:38+1:111m--1384.68162mECoRDhenkanal, Odisha
47RJGRRajathagarh  18:47+1:1318:48+1:171m--1396.73758mECoRRaj Athgarh, Odisha
48MZYMachapur  18:53+1:1818:54+1:181m--1399.84648mECoRKapilash Rd, Odisha
49GJTAGurudijhatia  19:02+1:1919:03+1:191m--1406.014433mECoRGurudijhat, Odisha
50BDPGBada Padagaon  19:05+1:1919:06+1:191m--1410.82931mECoRCuttack, Odisha
51CBTCharbatia  19:14+1:1919:15+1:191m--1414.74235mECoRCuttack, Odisha
52SQQSalagaonX  19:22+1:2219:23+1:231m--1419.61129mECoRCuttack, Odisha
53NRGNergundi  19:44+1:2219:45+1:231m--1423.45026mECoRCuttack District, Odisha
54MACRManguli Chowdwar  19:48+1:2119:49+1:211m--1425.93525mECoROrissa, Odisha
55KNPRKendrapara Road  19:56+1:2119:57+1:231m--1429.93129mECoRKendrapara Road, Odisha
56CTCCuttack (5)  20:05+1:2220:10+1:325m--1434.0828mECoRCuttack ph.no 0671-2610460, Odisha
57KTJIKatha Jori  20:22+1:2620:23+1:261m--1435.52428mECoRCuttack, Odisha
58GBKGopalpur BalkudaX  20:30+1:2620:31+1:291m--1438.32728mECoRGopalpur, Odisha
59BRAGBarang  20:48+1:2120:49+1:231m--1446.1-27mECoRDist - Cuttack, Odisha
60PTABPatia P.H.X  20:50-20:51-1m--1452.01630mECoRBhubaneshwar, Odisha
61MCSMancheswar  21:02+1:2321:03+1:231m--1454.9-27mECoRMancheswar, Odisha
62BNBHBani Bihar (2)X  21:04-21:05-1m--1458.32138mECoRBhubaneswar, Odisha
63BBSBhubaneswar (4)  21:15+1:2021:20+1:215m41461.76740mECoRBhubaneshwar ph.no. 0674-2532233, Odisha
64LGTRLingaraj Temple Road  21:24-21:25-1m--1466.27039mECoRBhubaneswar, Odisha
65RTNRetangX  21:31+1:2321:32+1:231m--1473.33419mECoRKhurdha, Odisha
66KURKhurda Road Junction (7)X  21:45+1:2421:50+1:265m--1480.71425mECoRKhordha, Odisha
67HPGMHaripur Gram  22:01+1:2122:02+1:211m--1483.34022mECoRKhordha, Odisha
68MWQMotari HaltX  22:10+1:2122:11+1:211m--1488.75212mECoRMotari, Odisha
69KASRKanas RoadX  22:15+1:1722:16+1:171m--1492.2209mECoRKhordha, Odisha
70DEGDelang  22:27+1:1722:28+1:191m--1495.9379mECoRKhordha, Odisha
71BRSTBir PurushottampurX  22:39+1:1822:40+1:191m--1502.64812mECoRSatasankha, Odisha
72SILSakhi Gopal (3)X  22:47+1:1822:48+1:201m--1508.19110mECoRPuri, Odisha
73JKDPJankidaipur  22:52+1:2222:53+1:221m--1514.24613mECoRChandanpur, Odisha
74MLTMalatipatpur (1)  22:57+1:2122:58+1:261m11517.2615mECoRPuri, Odisha
75PURIPuri (5)  00:15+32---2524.6-12mECoRPuri, Odisha
Scroll to Top
Scroll to Bottom